createdAt,value
2023-04-27T00:02:08.442Z,7.62
2023-04-27T00:06:10.545Z,7.39
2023-04-27T00:10:12.781Z,7.36
2023-04-27T00:14:14.897Z,7.32
2023-04-27T00:18:17.200Z,7.40
2023-04-27T00:22:19.440Z,7.40
2023-04-27T00:26:22.653Z,7.28
2023-04-27T00:30:27.270Z,6.97
2023-04-27T00:34:29.412Z,6.86
2023-04-27T00:38:31.764Z,6.83
2023-04-27T00:42:34.827Z,7.01
2023-04-27T00:46:37.123Z,6.98
2023-04-27T00:50:39.870Z,7.16
2023-04-27T00:54:42.628Z,7.25
2023-04-27T00:58:44.821Z,7.27
2023-04-27T01:02:49.312Z,7.34
2023-04-27T01:06:53.696Z,7.40
2023-04-27T01:10:56.820Z,7.44
2023-04-27T01:14:58.988Z,7.38
2023-04-27T01:19:01.437Z,7.40
2023-04-27T01:23:03.734Z,7.37
2023-04-27T01:27:05.881Z,7.26
2023-04-27T01:31:08.070Z,7.28
2023-04-27T01:35:10.593Z,7.25
2023-04-27T01:39:12.905Z,7.14
2023-04-27T01:43:17.070Z,7.13
2023-04-27T01:47:19.190Z,7.06
2023-04-27T01:51:21.683Z,6.97
2023-04-27T01:55:24.471Z,6.79
2023-04-27T01:59:26.706Z,6.87
2023-04-27T02:03:29.066Z,6.86
2023-04-27T02:07:34.674Z,6.79
2023-04-27T02:11:38.594Z,6.77
2023-04-27T02:15:41.046Z,6.75
2023-04-27T02:19:43.626Z,6.72
2023-04-27T02:23:46.580Z,6.72
2023-04-27T02:27:48.760Z,6.72
2023-04-27T02:31:51.731Z,6.66
2023-04-27T02:35:53.894Z,6.37
2023-04-27T02:39:57.570Z,5.92
2023-04-27T02:43:59.954Z,5.77
2023-04-27T02:48:02.254Z,5.79
2023-04-27T02:52:04.575Z,5.94
2023-04-27T02:56:06.920Z,6.08
2023-04-27T03:00:10.613Z,6.08
2023-04-27T03:04:14.857Z,6.07
2023-04-27T03:08:17.130Z,6.11
2023-04-27T03:12:19.294Z,6.14
2023-04-27T03:16:21.480Z,6.00
2023-04-27T03:20:24.115Z,6.01
2023-04-27T03:24:29.677Z,5.98
2023-04-27T03:28:31.903Z,5.93
2023-04-27T03:32:34.494Z,5.92
2023-04-27T03:36:36.685Z,5.93
2023-04-27T03:40:38.861Z,5.87
2023-04-27T03:44:41.714Z,5.79
2023-04-27T03:48:44.103Z,5.76
2023-04-27T03:52:46.657Z,5.80
2023-04-27T03:56:48.787Z,5.79
2023-04-27T04:00:51.461Z,5.74
2023-04-27T04:04:53.797Z,5.76
2023-04-27T04:08:56.145Z,5.71
2023-04-27T04:12:58.776Z,5.71
2023-04-27T04:17:01.814Z,5.46
2023-04-27T04:21:04.199Z,5.17
2023-04-27T04:25:06.858Z,4.94
2023-04-27T04:29:10.961Z,4.95
2023-04-27T04:33:14.017Z,4.66
2023-04-27T04:37:16.781Z,4.62
2023-04-27T04:41:19.590Z,4.89
2023-04-27T04:45:21.844Z,5.03
2023-04-27T04:49:24.567Z,5.28
2023-04-27T04:53:27.005Z,5.39
2023-04-27T04:57:31.175Z,5.53
2023-04-27T05:01:33.880Z,5.62
2023-04-27T05:05:36.555Z,5.92
2023-04-27T05:09:39.357Z,6.14
2023-04-27T05:13:41.498Z,6.29
2023-04-27T05:17:43.612Z,6.48
2023-04-27T05:21:46.110Z,6.59
2023-04-27T05:25:48.191Z,6.75
2023-04-27T05:29:50.377Z,6.93
2023-04-27T05:33:52.704Z,7.09
2023-04-27T05:37:55.254Z,7.18
2023-04-27T05:41:57.744Z,7.29
2023-04-27T05:46:00.201Z,7.51
2023-04-27T05:50:02.383Z,7.63
2023-04-27T05:54:04.582Z,7.74
2023-04-27T05:58:09.015Z,8.02
2023-04-27T06:02:11.602Z,8.10
2023-04-27T06:06:13.791Z,8.30
2023-04-27T06:10:16.662Z,8.48
2023-04-27T06:14:18.853Z,8.67
2023-04-27T06:18:21.123Z,8.91
2023-04-27T06:22:23.344Z,9.10
2023-04-27T06:26:25.517Z,9.34
2023-04-27T06:30:27.841Z,9.55
2023-04-27T06:34:29.913Z,9.76
2023-04-27T06:38:32.172Z,9.96
2023-04-27T06:42:34.990Z,10.15
2023-04-27T06:46:37.366Z,10.38
2023-04-27T06:50:39.859Z,10.58
2023-04-27T06:54:42.133Z,10.78
2023-04-27T06:58:44.342Z,10.91
2023-04-27T07:02:46.789Z,11.12
2023-04-27T07:06:49.025Z,11.23
2023-04-27T07:10:51.168Z,11.46
2023-04-27T07:14:53.250Z,11.61
2023-04-27T07:18:55.282Z,11.81
2023-04-27T07:22:57.642Z,12.05
2023-04-27T07:27:02.781Z,12.26
2023-04-27T07:31:06.337Z,12.45
2023-04-27T07:35:09.802Z,12.57
2023-04-27T07:39:12.691Z,12.80
2023-04-27T07:43:15.886Z,13.01
2023-04-27T07:47:19.068Z,13.17
2023-04-27T07:51:21.668Z,13.35
2023-04-27T07:55:24.681Z,13.51
2023-04-27T07:59:29.614Z,13.72
2023-04-27T08:03:32.132Z,13.88
2023-04-27T08:07:39.423Z,14.15
2023-04-27T08:11:44.907Z,14.27
2023-04-27T08:15:47.136Z,14.55
2023-04-27T08:19:49.290Z,14.74
2023-04-27T08:23:51.680Z,14.88
2023-04-27T08:27:53.869Z,15.02
2023-04-27T08:32:00.902Z,15.24
2023-04-27T08:36:03.158Z,15.47
2023-04-27T08:40:07.777Z,15.51
2023-04-27T08:44:10.288Z,15.83
2023-04-27T08:48:12.515Z,15.90
2023-04-27T08:52:16.567Z,16.05
2023-04-27T08:56:19.791Z,16.21
2023-04-27T09:00:22.118Z,16.32
2023-04-27T09:04:24.643Z,16.34
2023-04-27T09:08:27.611Z,16.63
2023-04-27T09:12:29.812Z,17.01
2023-04-27T09:16:32.166Z,17.18
2023-04-27T09:20:43.189Z,17.43
2023-04-27T09:24:53.050Z,17.46
2023-04-27T09:29:12.096Z,17.53
2023-04-27T09:33:14.731Z,17.63
2023-04-27T09:37:17.066Z,17.82
2023-04-27T09:41:20.173Z,18.08
2023-04-27T09:45:23.988Z,18.07
2023-04-27T09:49:28.131Z,18.30
2023-04-27T09:53:35.192Z,18.50
2023-04-27T09:57:46.839Z,18.53
2023-04-27T10:01:52.145Z,18.81
2023-04-27T10:06:29.033Z,19.02
2023-04-27T10:10:43.636Z,19.28
2023-04-27T10:15:16.042Z,19.27
2023-04-27T10:19:18.909Z,19.49
2023-04-27T10:23:25.566Z,19.67
2023-04-27T10:27:28.385Z,19.77
2023-04-27T10:31:31.020Z,19.81
2023-04-27T10:35:34.850Z,19.91
2023-04-27T10:39:47.733Z,19.96
2023-04-27T10:43:51.466Z,20.14
2023-04-27T10:47:59.184Z,20.34
2023-04-27T10:52:04.974Z,20.39
2023-04-27T10:56:08.200Z,20.51
2023-04-27T11:00:16.225Z,20.84
2023-04-27T11:04:19.450Z,21.18
2023-04-27T11:08:21.724Z,21.36
2023-04-27T11:12:24.346Z,21.48
2023-04-27T11:16:26.944Z,21.50
2023-04-27T11:20:29.402Z,21.78
2023-04-27T11:24:32.308Z,21.90
2023-04-27T11:28:34.757Z,21.85
2023-04-27T11:32:37.193Z,22.05
2023-04-27T11:36:39.470Z,22.24
2023-04-27T11:40:42.837Z,22.37
2023-04-27T11:45:02.917Z,22.31
2023-04-27T11:49:06.969Z,22.35
2023-04-27T11:53:09.093Z,22.20
2023-04-27T11:57:11.403Z,22.65
2023-04-27T12:01:15.466Z,22.82
2023-04-27T12:05:18.919Z,23.05
2023-04-27T12:09:22.640Z,23.13
2023-04-27T12:13:24.838Z,23.06
2023-04-27T12:17:27.244Z,22.96
2023-04-27T12:21:29.431Z,23.15
2023-04-27T12:25:31.894Z,23.54
2023-04-27T12:29:34.352Z,23.92
2023-04-27T12:33:37.237Z,23.91
2023-04-27T12:37:39.591Z,24.26
2023-04-27T12:41:44.778Z,24.54
2023-04-27T12:45:46.859Z,24.54
2023-04-27T12:49:49.062Z,24.70
2023-04-27T12:53:51.165Z,25.01
2023-04-27T12:57:53.287Z,25.03
2023-04-27T13:01:56.132Z,25.10
2023-04-27T13:05:58.321Z,25.20
2023-04-27T13:10:00.435Z,25.26
2023-04-27T13:14:02.557Z,25.69
2023-04-27T13:18:06.736Z,25.46
2023-04-27T13:22:10.030Z,25.02
2023-04-27T13:26:13.396Z,25.15
2023-04-27T13:30:16.031Z,25.42
2023-04-27T13:34:18.999Z,25.66
2023-04-27T13:38:21.452Z,25.60
2023-04-27T13:42:29.333Z,25.52
2023-04-27T13:46:31.525Z,25.55
2023-04-27T13:50:33.697Z,25.21
2023-04-27T13:54:36.238Z,24.96
2023-04-27T13:58:38.820Z,25.01
2023-04-27T14:02:42.114Z,25.17
2023-04-27T14:06:45.896Z,24.97
2023-04-27T14:10:48.941Z,24.67
2023-04-27T14:14:51.551Z,24.53
2023-04-27T14:18:53.813Z,24.44
2023-04-27T14:22:58.346Z,24.27
2023-04-27T14:27:00.809Z,24.21
2023-04-27T14:31:03.251Z,24.23
2023-04-27T14:35:05.762Z,24.37
2023-04-27T14:39:09.606Z,24.44
2023-04-27T14:43:11.907Z,24.52
2023-04-27T14:47:14.632Z,24.62
2023-04-27T14:51:17.266Z,24.81
2023-04-27T14:55:19.713Z,24.79
2023-04-27T14:59:23.167Z,25.07
2023-04-27T15:03:26.234Z,25.07
2023-04-27T15:07:28.556Z,25.12
2023-04-27T15:11:30.888Z,25.30
2023-04-27T15:15:33.072Z,25.28
2023-04-27T15:19:35.831Z,25.12
2023-04-27T15:23:38.201Z,24.79
2023-04-27T15:27:43.052Z,24.66
2023-04-27T15:31:47.576Z,24.81
2023-04-27T15:35:50.649Z,24.82
2023-04-27T15:39:52.863Z,24.80
2023-04-27T15:43:55.116Z,24.72
2023-04-27T15:47:57.902Z,25.19
2023-04-27T15:52:00.147Z,25.84
2023-04-27T15:56:02.371Z,26.06
2023-04-27T16:00:12.579Z,25.78
2023-04-27T16:04:15.015Z,25.55
2023-04-27T16:42:51.117Z,24.24
2023-04-27T16:46:53.750Z,24.32
2023-04-27T16:50:56.414Z,24.73
2023-04-27T16:54:58.584Z,24.25
2023-04-27T16:59:01.397Z,23.66
2023-04-27T17:03:03.653Z,23.32
2023-04-27T17:07:07.092Z,23.04
2023-04-27T17:11:10.054Z,23.03
2023-04-27T17:15:12.672Z,23.37
2023-04-27T17:19:15.083Z,23.19
2023-04-27T17:23:17.385Z,22.93
2023-04-27T17:27:19.609Z,22.44
2023-04-27T17:31:21.784Z,21.91
2023-04-27T17:35:24.201Z,21.60
2023-04-27T17:39:26.304Z,21.33
2023-04-27T17:43:28.457Z,20.85
2023-04-27T17:47:30.968Z,20.62
2023-04-27T17:51:34.288Z,20.24
2023-04-27T17:55:36.371Z,19.92
2023-04-27T17:59:38.466Z,19.69
2023-04-27T18:03:42.336Z,19.27
2023-04-27T18:07:46.253Z,19.04
2023-04-27T18:11:48.454Z,18.53
2023-04-27T18:15:50.582Z,18.36
2023-04-27T18:20:06.970Z,17.95
2023-04-27T18:24:10.789Z,17.64
2023-04-27T18:28:12.910Z,17.26
2023-04-27T18:32:15.103Z,17.04
2023-04-27T18:36:17.262Z,16.93
2023-04-27T18:40:21.460Z,16.66
2023-04-27T18:44:24.676Z,16.47
2023-04-27T18:48:26.841Z,16.40
2023-04-27T18:52:28.975Z,16.30
2023-04-27T18:56:31.571Z,16.13
2023-04-27T19:00:33.731Z,16.01
2023-04-27T19:04:36.113Z,15.86
2023-04-27T19:08:38.268Z,15.81
2023-04-27T19:12:40.549Z,15.71
2023-04-27T19:16:42.849Z,15.50
2023-04-27T19:20:45.982Z,15.57
2023-04-27T19:24:49.266Z,15.37
2023-04-27T19:28:51.983Z,15.15
2023-04-27T19:32:54.209Z,14.96
2023-04-27T19:36:56.328Z,14.93
2023-04-27T19:40:58.810Z,15.05
2023-04-27T19:45:01.175Z,14.84
2023-04-27T19:49:03.499Z,14.72
2023-04-27T19:53:05.741Z,14.47
2023-04-27T19:57:08.204Z,14.47
2023-04-27T20:01:12.973Z,14.27
2023-04-27T20:05:16.320Z,14.14
2023-04-27T20:09:19.459Z,14.18
2023-04-27T20:13:21.626Z,14.06
2023-04-27T20:17:26.239Z,14.13
2023-04-27T20:21:29.411Z,14.00
2023-04-27T20:25:32.960Z,13.61
2023-04-27T20:29:35.089Z,13.40
2023-04-27T20:33:37.517Z,13.26
2023-04-27T20:37:40.183Z,13.20
2023-04-27T20:41:42.495Z,13.11
2023-04-27T20:45:44.653Z,13.09
2023-04-27T20:49:46.902Z,12.98
2023-04-27T20:53:49.006Z,12.88
2023-04-27T20:57:51.131Z,12.85
2023-04-27T21:01:53.236Z,12.69
2023-04-27T21:05:55.635Z,12.75
2023-04-27T21:09:57.923Z,12.73
2023-04-27T21:14:00.161Z,12.71
2023-04-27T21:18:04.370Z,12.69
2023-04-27T21:22:06.478Z,12.58
2023-04-27T21:26:09.855Z,12.50
2023-04-27T21:30:12.250Z,12.45
2023-04-27T21:34:15.096Z,12.40
2023-04-27T21:38:17.428Z,12.31
2023-04-27T21:42:19.540Z,11.96
2023-04-27T21:46:23.684Z,11.66
2023-04-27T21:50:25.939Z,11.64
2023-04-27T21:54:28.207Z,11.61
2023-04-27T21:58:30.445Z,11.14
2023-04-27T22:02:32.711Z,10.93
2023-04-27T22:06:34.980Z,10.66
2023-04-27T22:10:37.512Z,10.47
2023-04-27T22:14:39.690Z,10.63
2023-04-27T22:18:42.047Z,10.62
2023-04-27T22:23:04.161Z,10.57
2023-04-27T22:27:06.436Z,10.71
2023-04-27T22:31:08.601Z,10.56
2023-04-27T22:35:24.767Z,10.05
2023-04-27T22:39:30.620Z,10.07
2023-04-27T22:43:32.794Z,10.28
2023-04-27T22:47:35.718Z,10.41
2023-04-27T22:51:38.467Z,10.51
2023-04-27T22:55:40.722Z,10.38
2023-04-27T22:59:42.882Z,10.09
2023-04-27T23:03:45.158Z,9.55
2023-04-27T23:07:47.900Z,9.27
2023-04-27T23:11:50.906Z,9.56
2023-04-27T23:15:54.490Z,9.71
2023-04-27T23:20:00.631Z,9.78
2023-04-27T23:24:02.760Z,9.84
2023-04-27T23:28:04.948Z,9.85
2023-04-27T23:32:07.715Z,9.87
2023-04-27T23:36:09.801Z,9.57
2023-04-27T23:40:12.401Z,9.65
2023-04-27T23:44:14.939Z,9.45
2023-04-27T23:48:17.546Z,9.34
2023-04-27T23:52:20.129Z,9.10
2023-04-27T23:56:23.167Z,8.76
